Time;durP1;ratioP1;P1;durP2;ratioP2;P2;SDS_P1;SDS_P2;PMS_P1;PMS_P2;Temp;Humidity;BMP_temperature;BMP_pressure;BME280_temperature;BME280_humidity;BME280_pressure;Samples;Min_cycle;Max_cycle;Signal;HPM_P1;HPM_P2
2022/03/28 00:01:38;;;;;;;3.45;0.77;;;;;;;19.83;34.04;100876.31;4196280;28;20377;-60
2022/03/28 00:03:39;;;;;;;1.92;0.52;;;;;;;19.83;33.92;100881.03;4196250;28;20045;-60
2022/03/28 00:05:41;;;;;;;1.30;0.80;;;;;;;19.84;34.03;100883.56;4196491;28;20427;-60
2022/03/28 00:07:51;;;;;;;2.30;0.60;;;;;;;19.83;33.90;100881.88;4196919;28;20110;-60
2022/03/28 00:09:52;;;;;;;0.95;0.60;;;;;;;19.84;33.93;100896.59;4197110;28;20086;-61
2022/03/28 00:11:54;;;;;;;1.98;0.82;;;;;;;19.83;33.64;100892.16;4194322;28;20442;-61
2022/03/28 00:13:56;;;;;;;2.08;0.73;;;;;;;19.85;33.90;100903.81;4196969;28;20037;-61
2022/03/28 00:15:57;;;;;;;4.43;1.25;;;;;;;19.86;33.85;100905.50;4196528;28;20102;-60
2022/03/28 00:17:58;;;;;;;3.28;0.80;;;;;;;19.86;33.58;100913.81;4196460;28;20110;-59
2022/03/28 00:20:00;;;;;;;1.35;0.55;;;;;;;19.86;33.67;100903.53;4197475;28;20388;-59
2022/03/28 00:22:02;;;;;;;3.85;0.75;;;;;;;19.86;33.35;100913.81;4196081;28;20044;-59
2022/03/28 00:24:04;;;;;;;4.63;0.85;;;;;;;19.86;33.51;100922.97;4197484;28;20048;-60
2022/03/28 00:26:05;;;;;;;6.93;1.25;;;;;;;19.87;33.45;100926.59;4202934;28;20097;-60
2022/03/28 00:28:07;;;;;;;1.95;0.70;;;;;;;19.88;33.35;100929.06;4201495;28;20070;-60
2022/03/28 00:30:09;;;;;;;3.60;0.63;;;;;;;19.86;33.30;100933.25;4196323;28;20107;-60
2022/03/28 00:32:11;;;;;;;5.88;0.80;;;;;;;19.88;33.46;100936.59;4196528;28;20075;-59
2022/03/28 00:34:12;;;;;;;4.47;0.82;;;;;;;19.88;33.26;100944.91;4192067;28;20133;-59
2022/03/28 00:36:16;;;;;;;4.18;0.82;;;;;;;19.88;33.34;100944.91;4187582;28;20052;-60
2022/03/28 00:38:21;;;;;;;3.00;0.90;;;;;;;19.88;33.18;100951.28;4195969;28;20048;-60
2022/03/28 00:40:23;;;;;;;2.33;0.80;;;;;;;19.87;33.45;100957.13;4196442;28;20040;-60
2022/03/28 00:42:25;;;;;;;4.40;1.05;;;;;;;19.90;33.35;100960.22;4195382;28;20319;-59
2022/03/28 00:44:30;;;;;;;1.88;0.85;;;;;;;19.88;33.39;100967.97;4196847;28;20427;-60
2022/03/28 00:46:44;;;;;;;3.97;0.70;;;;;;;19.91;33.50;100980.47;4192368;28;20099;-60
2022/03/28 00:48:52;;;;;;;9.15;0.80;;;;;;;19.91;33.61;100969.38;4180355;28;20090;-61
2022/03/28 00:50:56;;;;;;;2.70;0.70;;;;;;;19.92;33.59;100982.13;4195826;28;20484;-59
2022/03/28 00:52:59;;;;;;;7.30;0.90;;;;;;;19.92;33.17;100982.13;4196686;28;20105;-59
2022/03/28 00:55:04;;;;;;;6.80;0.90;;;;;;;19.93;33.50;100993.00;4198950;28;20040;-61
2022/03/28 00:57:06;;;;;;;6.38;0.88;;;;;;;19.94;33.47;100996.59;4199400;28;20306;-60
2022/03/28 00:59:08;;;;;;;8.93;0.93;;;;;;;19.95;33.13;100995.50;4197225;28;20036;-60
2022/03/28 01:01:10;;;;;;;21.40;2.13;;;;;;;19.94;33.21;100999.38;4199213;28;20094;-59
2022/03/28 01:03:11;;;;;;;9.70;1.17;;;;;;;19.95;33.40;101001.03;4197829;28;20048;-60
2022/03/28 01:05:13;;;;;;;6.57;0.93;;;;;;;19.92;33.24;101007.97;4197280;28;20098;-59
2022/03/28 01:07:16;;;;;;;7.38;1.00;;;;;;;19.95;33.64;101001.03;4198182;28;20036;-60
2022/03/28 01:09:18;;;;;;;11.77;1.20;;;;;;;19.95;33.20;101013.00;4200303;28;20428;-60
2022/03/28 01:11:22;;;;;;;4.88;0.90;;;;;;;19.96;33.48;101013.81;4199459;28;20074;-60
2022/03/28 01:13:28;;;;;;;10.93;1.42;;;;;;;19.96;33.33;101011.03;4198829;28;20045;-60
2022/03/28 01:15:29;;;;;;;11.35;1.30;;;;;;;19.98;33.34;101019.94;4199177;28;20110;-60
2022/03/28 01:19:50;;;;;;;12.77;1.05;;;;;;;19.98;33.39;101020.78;4200292;28;20434;-58
2022/03/28 01:21:56;;;;;;;6.75;1.02;;;;;;;19.99;33.61;101022.44;4198345;28;20102;-60
2022/03/28 01:23:57;;;;;;;;;;;;;;;19.97;33.69;101032.16;4198776;28;20044;-60
2022/03/28 01:26:01;;;;;;;8.75;1.85;;;;;;;20.01;33.60;101027.72;4198517;28;19938;-59
2022/03/28 01:28:03;;;;;;;5.95;0.93;;;;;;;20.01;33.54;101045.22;4198274;28;20044;-58
2022/03/28 01:30:05;;;;;;;11.57;1.45;;;;;;;20.02;33.16;101040.50;4194767;28;20095;-61
2022/03/28 01:32:08;;;;;;;8.55;1.25;;;;;;;20.02;33.59;101040.50;4192658;28;20078;-60
2022/03/28 01:34:19;;;;;;;4.78;0.80;;;;;;;20.00;33.67;101051.88;4198846;28;20114;-60
2022/03/28 01:36:29;;;;;;;8.13;1.30;;;;;;;20.00;33.53;101054.66;4198676;28;20087;-59
2022/03/28 01:38:31;;;;;;;9.02;1.23;;;;;;;19.99;33.66;101047.44;4193064;28;20106;-59
2022/03/28 01:40:34;;;;;;;6.28;1.05;;;;;;;20.02;33.63;101055.25;4198546;28;20033;-59
2022/03/28 01:42:36;;;;;;;8.77;1.50;;;;;;;20.03;33.81;101058.84;4198304;28;20047;-58
2022/03/28 01:44:37;;;;;;;11.10;1.15;;;;;;;20.03;33.24;101056.91;4198057;28;20040;-59
2022/03/28 01:46:45;;;;;;;6.22;1.02;;;;;;;20.03;33.66;101072.75;4202941;28;20430;-60
2022/03/28 01:48:46;;;;;;;6.90;1.70;;;;;;;20.02;33.42;101068.28;4206813;28;20033;-60
2022/03/28 01:50:50;;;;;;;4.72;1.08;;;;;;;20.03;33.38;101076.34;4198000;28;20036;-60
2022/03/28 01:52:52;;;;;;;7.35;1.13;;;;;;;20.05;33.21;101076.06;4181949;28;20045;-60
2022/03/28 01:54:54;;;;;;;6.95;1.10;;;;;;;20.05;33.63;101084.41;4182460;28;20582;-60
2022/03/28 01:56:55;;;;;;;5.28;1.00;;;;;;;20.05;33.41;101082.47;4192523;28;20032;-60
2022/03/28 01:58:56;;;;;;;10.30;1.15;;;;;;;20.03;33.15;101086.63;4208811;28;20032;-60
2022/03/28 02:00:58;;;;;;;6.75;0.90;;;;;;;20.05;33.25;101082.47;4213733;28;20056;-60
2022/03/28 02:03:00;;;;;;;6.20;0.90;;;;;;;20.03;33.58;101081.06;4196011;28;20048;-59
2022/03/28 02:05:01;;;;;;;5.95;1.23;;;;;;;20.03;33.39;101081.91;4198483;28;20380;-60
2022/03/28 02:07:03;;;;;;;3.40;0.82;;;;;;;20.06;33.12;101094.41;4207763;28;20044;-60
2022/03/28 02:09:05;;;;;;;7.55;1.02;;;;;;;20.05;33.53;101089.97;4214332;28;20093;-60
2022/03/28 02:11:07;;;;;;;4.38;0.73;;;;;;;20.04;33.38;101093.84;4208990;28;20044;-60
2022/03/28 02:13:11;;;;;;;3.10;0.85;;;;;;;20.08;33.33;101105.28;4207142;28;20040;-59
2022/03/28 02:15:16;;;;;;;5.40;0.82;;;;;;;20.08;33.39;101103.31;4198917;28;20040;-60
2022/03/28 02:17:17;;;;;;;8.52;1.02;;;;;;;20.07;33.35;101098.88;4213157;28;20040;-59
2022/03/28 02:19:19;;;;;;;4.18;0.70;;;;;;;20.09;33.26;101110.53;4188466;28;20080;-60
2022/03/28 02:21:20;;;;;;;3.35;1.20;;;;;;;20.10;33.53;101114.97;4202585;28;20446;-61
2022/03/28 02:23:25;;;;;;;4.03;0.80;;;;;;;20.11;33.07;101121.38;4208730;28;20556;-59
2022/03/28 02:25:26;;;;;;;5.32;0.60;;;;;;;20.10;33.10;101120.53;4201496;28;20082;-60
2022/03/28 02:27:27;;;;;;;7.07;0.95;;;;;;;20.10;33.40;101120.53;4197885;28;20032;-60
2022/03/28 02:29:29;;;;;;;4.07;0.77;;;;;;;20.10;33.33;101114.16;4198060;28;20045;-63
2022/03/28 02:31:30;;;;;;;6.03;1.23;;;;;;;20.11;33.41;101124.16;4201863;28;20078;-60
2022/03/28 02:33:33;;;;;;;4.90;1.00;;;;;;;20.10;33.17;101120.53;4207483;28;20471;-60
2022/03/28 02:35:34;;;;;;;10.32;1.35;;;;;;;20.11;33.42;101124.97;4197385;28;20033;-60
2022/03/28 02:37:36;;;;;;;16.88;1.30;;;;;;;20.09;33.25;101126.38;4197854;28;20049;-60
2022/03/28 02:39:38;;;;;;;8.95;1.50;;;;;;;20.09;33.31;101129.16;4209041;28;20052;-60
2022/03/28 02:41:39;;;;;;;10.75;1.27;;;;;;;20.12;33.42;101129.47;4195279;28;20483;-59
2022/03/28 02:43:43;;;;;;;7.07;1.30;;;;;;;20.12;33.49;101154.47;4211733;28;20036;-60
2022/03/28 02:45:45;;;;;;;7.60;1.50;;;;;;;20.12;33.12;101139.75;4212798;28;20052;-60
2022/03/28 02:47:46;;;;;;;5.75;0.93;;;;;;;20.12;33.47;101150.84;4210209;28;20098;-60
2022/03/28 02:49:50;;;;;;;7.35;1.27;;;;;;;20.11;33.24;101152.75;4212965;28;20036;-60
2022/03/28 02:51:52;;;;;;;7.45;0.93;;;;;;;20.11;33.40;101135.25;4214145;28;20040;-60
2022/03/28 02:53:56;;;;;;;7.47;1.00;;;;;;;20.10;33.28;101151.09;4203005;28;20036;-60
2022/03/28 02:55:59;;;;;;;5.72;1.63;;;;;;;20.10;32.92;101142.75;4203148;28;20032;-60
2022/03/28 02:58:01;;;;;;;12.57;0.90;;;;;;;20.11;33.28;101165.81;4211914;28;20044;-60
2022/03/28 03:00:07;;;;;;;7.07;1.30;;;;;;;20.08;33.36;101155.28;4203185;28;20036;-60
2022/03/28 03:02:09;;;;;;;7.20;0.93;;;;;;;20.10;33.32;101159.44;4198889;28;20041;-60
2022/03/28 03:04:10;;;;;;;11.40;1.38;;;;;;;20.10;33.00;101162.22;4197701;28;20071;-60
2022/03/28 03:06:14;;;;;;;10.30;1.20;;;;;;;20.09;33.08;101168.88;4197372;28;20050;-60
2022/03/28 03:08:16;;;;;;;4.82;0.90;;;;;;;20.10;33.29;101159.44;4209091;28;20479;-61
2022/03/28 03:10:21;;;;;;;9.40;0.93;;;;;;;20.10;32.96;101159.44;4214534;28;20085;-60
2022/03/28 03:12:22;;;;;;;7.22;0.90;;;;;;;20.09;32.86;101174.44;4210651;28;20040;-60
2022/03/28 03:14:24;;;;;;;3.70;0.82;;;;;;;20.09;33.13;101159.72;4196444;28;20095;-59
2022/03/28 03:16:25;;;;;;;8.55;1.30;;;;;;;20.10;32.70;101173.31;4179499;28;20087;-60
2022/03/28 03:18:27;;;;;;;4.70;0.70;;;;;;;20.09;32.86;101166.09;4203471;28;20070;-60
2022/03/28 03:20:29;;;;;;;11.68;0.75;;;;;;;20.10;33.07;101170.53;4212056;28;20039;-60
2022/03/28 03:22:30;;;;;;;6.53;1.00;;;;;;;20.11;33.00;101182.50;4181218;28;20045;-58
2022/03/28 03:24:32;;;;;;;4.85;0.80;;;;;;;20.10;32.62;101167.78;4197813;28;20044;-59
2022/03/28 03:26:33;;;;;;;5.40;0.68;;;;;;;20.09;33.00;101185.56;4197123;28;20538;-59
2022/03/28 03:28:34;;;;;;;6.82;0.90;;;;;;;20.10;32.94;101175.28;4197286;28;20114;-59
2022/03/28 03:30:36;;;;;;;4.93;2.08;;;;;;;20.09;32.56;101177.22;4197418;28;20044;-58
2022/03/28 03:32:40;;;;;;;7.00;0.77;;;;;;;20.07;32.64;101171.09;4179117;28;20095;-59
2022/03/28 03:34:41;;;;;;;3.92;0.90;;;;;;;20.04;32.62;101189.13;4211761;28;20445;-59
2022/03/28 03:36:45;;;;;;;4.13;0.98;;;;;;;20.08;33.05;101178.34;4189054;28;20044;-59
2022/03/28 03:38:52;;;;;;;5.20;0.80;;;;;;;20.05;32.74;101178.84;4173293;28;20480;-59
2022/03/28 03:40:54;;;;;;;4.82;0.80;;;;;;;20.09;32.77;101202.22;4164360;28;20042;-59
2022/03/28 03:42:55;;;;;;;5.85;0.82;;;;;;;20.09;32.82;101206.94;4164327;28;20033;-58
2022/03/28 03:45:00;;;;;;;9.05;0.90;;;;;;;20.09;32.75;101196.66;4180115;28;20497;-59
2022/03/28 03:47:02;;;;;;;5.43;0.73;;;;;;;20.09;33.35;101202.22;4165233;28;20049;-59
2022/03/28 03:49:03;;;;;;;5.55;1.00;;;;;;;20.10;33.35;101197.50;4174348;28;20370;-59
2022/03/28 03:51:07;;;;;;;7.50;0.95;;;;;;;20.09;32.97;101204.16;4168723;28;20176;-59
2022/03/28 03:53:09;;;;;;;6.50;0.88;;;;;;;20.05;33.02;101198.31;4164278;28;20046;-59
2022/03/28 03:55:11;;;;;;;8.93;0.93;;;;;;;20.09;32.96;101205.00;4175955;28;20091;-59
2022/03/28 03:57:13;;;;;;;6.55;1.00;;;;;;;20.10;32.99;101209.44;4166640;28;20041;-59
2022/03/28 03:59:14;;;;;;;11.77;0.70;;;;;;;20.08;33.20;101211.66;4164103;28;20091;-59
2022/03/28 04:01:15;;;;;;;8.10;0.90;;;;;;;20.07;33.32;101212.78;4163972;28;20034;-60
2022/03/28 04:03:17;;;;;;;5.63;0.50;;;;;;;20.09;33.06;101213.34;4170796;28;20098;-59
2022/03/28 04:05:19;;;;;;;3.97;0.90;;;;;;;20.08;33.22;101217.22;4174831;28;20041;-59
2022/03/28 04:07:20;;;;;;;12.88;1.85;;;;;;;20.08;32.93;101211.66;4167386;28;20538;-59
2022/03/28 04:09:28;;;;;;;6.55;0.80;;;;;;;20.08;33.47;101214.44;4172118;28;20108;-59
2022/03/28 04:11:29;;;;;;;7.32;0.98;;;;;;;20.09;33.39;101213.34;4163764;28;20096;-59
2022/03/28 04:13:32;;;;;;;5.07;0.80;;;;;;;20.09;33.25;101206.94;4163839;28;20041;-57
2022/03/28 04:15:34;;;;;;;8.68;0.82;;;;;;;20.10;33.12;101216.94;4164351;28;20071;-58
2022/03/28 04:17:44;;;;;;;12.98;0.75;;;;;;;20.08;33.19;101210.84;4163741;28;20542;-58
2022/03/28 04:19:48;;;;;;;5.07;0.90;;;;;;;20.09;32.89;101212.50;4163396;28;20042;-58
2022/03/28 04:21:53;;;;;;;6.28;0.77;;;;;;;20.10;33.26;101203.06;4163530;28;20091;-58
2022/03/28 04:23:54;;;;;;;3.70;0.90;;;;;;;20.08;33.22;101208.88;4163970;28;20041;-58
2022/03/28 04:25:59;;;;;;;8.63;1.02;;;;;;;20.10;33.36;101211.38;4166341;28;20068;-58
2022/03/28 04:28:00;;;;;;;3.45;0.75;;;;;;;20.09;32.97;101210.56;4167658;28;20527;-58
2022/03/28 04:30:04;;;;;;;2.92;0.70;;;;;;;20.10;33.08;101212.22;4167402;28;20045;-58
2022/03/28 04:32:06;;;;;;;4.70;0.60;;;;;;;20.11;33.20;101216.66;4166172;28;20086;-59
2022/03/28 04:34:09;;;;;;;4.63;0.80;;;;;;;20.10;33.08;101219.72;4166890;28;20329;-58
2022/03/28 04:36:13;;;;;;;5.15;1.00;;;;;;;20.07;32.98;101215.56;4170976;28;20103;-60
2022/03/28 04:38:14;;;;;;;3.13;0.85;;;;;;;20.10;33.02;101223.34;4199410;28;20605;-58
2022/03/28 04:40:17;;;;;;;7.22;0.85;;;;;;;20.09;33.17;101216.13;4199852;28;20102;-59
2022/03/28 04:42:24;;;;;;;3.78;0.43;;;;;;;20.09;33.47;101213.34;4193636;28;20098;-59
2022/03/28 04:44:28;;;;;;;9.35;0.98;;;;;;;20.10;33.17;101214.16;4202771;28;20086;-60
2022/03/28 04:46:29;;;;;;;3.50;0.65;;;;;;;20.10;33.28;101226.13;4207827;28;20118;-59
2022/03/28 04:48:31;;;;;;;6.35;0.73;;;;;;;20.09;33.12;101224.44;4199323;28;20037;-60
2022/03/28 04:50:32;;;;;;;3.05;0.63;;;;;;;20.09;33.02;101220.84;4199830;28;20050;-60
2022/03/28 04:52:34;;;;;;;2.30;0.60;;;;;;;20.09;33.26;101218.06;4199406;28;20036;-59
2022/03/28 04:54:38;;;;;;;4.95;0.50;;;;;;;20.07;32.92;101221.13;4200144;28;20036;-59
2022/03/28 04:56:39;;;;;;;6.32;0.65;;;;;;;20.07;33.03;101226.66;4199983;28;20040;-59
2022/03/28 04:58:41;;;;;;;2.50;0.60;;;;;;;20.06;33.12;101213.88;4199714;28;20114;-58
2022/03/28 05:00:52;;;;;;;0.90;0.50;;;;;;;20.06;32.81;101216.63;4198637;28;20086;-59
2022/03/28 05:02:54;;;;;;;0.73;0.50;;;;;;;20.06;33.11;101219.41;4198923;28;20484;-59
2022/03/28 05:04:55;;;;;;;2.63;0.60;;;;;;;20.02;32.70;101213.59;4199938;28;20537;-60
2022/03/28 05:06:56;;;;;;;4.03;0.93;;;;;;;20.04;33.15;101216.09;4199575;28;20094;-60
2022/03/28 05:08:58;;;;;;;0.82;0.35;;;;;;;20.04;32.76;101216.09;4199483;28;20431;-59
2022/03/28 05:10:59;;;;;;;1.30;0.65;;;;;;;20.04;32.74;101210.53;4199507;28;20041;-59
2022/03/28 05:13:03;;;;;;;2.25;0.55;;;;;;;20.03;32.65;101220.81;4198912;28;20117;-58
2022/03/28 05:15:05;;;;;;;2.38;0.90;;;;;;;20.02;33.07;101212.72;4199493;28;20045;-58
2022/03/28 05:17:07;;;;;;;2.08;0.50;;;;;;;20.02;32.56;101207.16;4198792;28;20619;-58
2022/03/28 05:19:11;;;;;;;0.82;0.47;;;;;;;20.03;32.51;101214.41;4199339;28;20040;-58
2022/03/28 05:21:13;;;;;;;2.78;0.60;;;;;;;20.03;32.91;101220.81;4199288;28;20041;-59
2022/03/28 05:23:14;;;;;;;1.60;0.50;;;;;;;20.03;32.57;101225.53;4198801;28;20032;-59
2022/03/28 05:25:15;;;;;;;2.25;0.40;;;;;;;20.03;32.45;101231.09;4199147;28;20094;-58
2022/03/28 05:27:17;;;;;;;1.08;0.60;;;;;;;20.02;32.37;101224.69;4198725;28;20541;-59
2022/03/28 05:29:23;;;;;;;0.85;0.50;;;;;;;20.02;32.45;101229.38;4199333;28;20109;-60
2022/03/28 05:31:25;;;;;;;0.82;0.50;;;;;;;20.01;32.52;101224.94;4199130;28;20369;-60
2022/03/28 05:33:26;;;;;;;0.55;0.40;;;;;;;20.01;32.40;101227.72;4198793;28;20475;-60
2022/03/28 05:35:31;;;;;;;2.15;0.40;;;;;;;19.99;32.54;101229.94;4199422;28;20024;-60
2022/03/28 05:37:33;;;;;;;0.63;0.40;;;;;;;20.02;32.42;101229.38;4197855;28;20044;-60
2022/03/28 05:39:36;;;;;;;1.38;0.43;;;;;;;20.02;32.22;101235.81;4198981;28;20082;-60
2022/03/28 05:41:38;;;;;;;3.28;1.10;;;;;;;20.00;32.38;101223.28;4198723;28;20102;-60
2022/03/28 05:43:39;;;;;;;0.45;0.30;;;;;;;20.02;32.14;101229.38;4199029;28;20419;-60
2022/03/28 05:45:40;;;;;;;0.40;0.30;;;;;;;20.02;32.24;101223.84;4198963;28;20048;-60
2022/03/28 05:47:42;;;;;;;2.00;0.52;;;;;;;20.02;32.16;101234.94;4198363;28;20040;-60
2022/03/28 05:49:46;;;;;;;0.88;0.40;;;;;;;20.01;32.40;101234.13;4198400;28;20098;-60
2022/03/28 05:51:47;;;;;;;0.98;0.40;;;;;;;20.02;32.57;101244.16;4198627;28;20033;-60
2022/03/28 05:53:49;;;;;;;1.48;0.50;;;;;;;20.03;32.20;101242.19;4199051;28;20472;-59
2022/03/28 05:55:50;;;;;;;0.95;0.43;;;;;;;20.02;32.46;101243.28;4198431;28;20090;-60
2022/03/28 05:57:51;;;;;;;1.95;0.47;;;;;;;20.02;32.17;101257.16;4198506;28;20066;-61
2022/03/28 05:59:53;;;;;;;0.60;0.30;;;;;;;20.02;32.51;101258.03;4198650;28;20095;-61
2022/03/28 06:01:54;;;;;;;1.38;0.35;;;;;;;20.02;32.18;101259.94;4198422;28;20040;-61
2022/03/28 06:03:55;;;;;;;1.52;0.40;;;;;;;20.03;32.40;101247.75;4198530;28;20033;-60
2022/03/28 06:06:02;;;;;;;0.93;0.30;;;;;;;20.01;32.15;101258.28;4198568;28;20040;-61
2022/03/28 06:08:07;;;;;;;1.00;0.30;;;;;;;20.02;32.31;101252.47;4198077;28;20434;-61
2022/03/28 06:10:16;;;;;;;0.47;0.35;;;;;;;20.00;32.07;101259.38;4198371;28;20102;-60
2022/03/28 06:12:18;;;;;;;2.38;0.30;;;;;;;20.02;32.05;101254.38;4198112;28;20545;-60
2022/03/28 06:14:19;;;;;;;1.38;0.40;;;;;;;20.02;32.27;101254.38;4212939;28;20052;-61
2022/03/28 06:16:20;;;;;;;2.10;0.30;;;;;;;20.03;32.01;101269.97;4199209;28;20559;-60
2022/03/28 06:18:22;;;;;;;0.43;0.40;;;;;;;20.03;32.04;101261.66;4211507;28;20040;-60
2022/03/28 06:20:23;;;;;;;0.30;0.20;;;;;;;20.03;31.85;101248.59;4199173;28;20447;-61
2022/03/28 06:22:25;;;;;;;0.82;0.40;;;;;;;20.03;32.27;101264.41;4202253;28;20093;-60
2022/03/28 06:24:26;;;;;;;0.30;0.30;;;;;;;20.03;32.21;101265.25;4199390;28;20102;-59
2022/03/28 06:26:28;;;;;;;1.27;0.22;;;;;;;20.00;31.86;101268.56;4205745;28;20070;-60
2022/03/28 06:28:32;;;;;;;1.35;0.40;;;;;;;20.04;32.11;101274.41;4212059;28;20032;-60
2022/03/28 06:30:34;;;;;;;0.52;0.30;;;;;;;20.03;31.89;101269.97;4197865;28;20032;-60
2022/03/28 06:32:35;;;;;;;0.30;0.30;;;;;;;20.03;32.24;101267.19;4198176;28;20045;-60
2022/03/28 06:34:37;;;;;;;2.65;0.50;;;;;;;20.04;32.14;101277.19;4198405;28;20098;-60
2022/03/28 06:36:39;;;;;;;0.70;0.20;;;;;;;20.04;31.75;101279.97;4197967;28;20106;-60
2022/03/28 06:38:40;;;;;;;0.40;0.30;;;;;;;20.04;32.08;101279.97;4199142;28;20082;-60
2022/03/28 06:40:42;;;;;;;0.38;0.38;;;;;;;20.04;31.70;101278.03;4197632;28;20075;-60
2022/03/28 06:42:43;;;;;;;0.50;0.38;;;;;;;20.03;31.79;101287.47;4197885;28;20098;-60
2022/03/28 06:44:45;;;;;;;1.75;0.30;;;;;;;20.02;31.92;101271.06;4200703;28;20094;-60
2022/03/28 06:46:50;;;;;;;0.35;0.30;;;;;;;20.02;31.79;101274.69;4198482;28;20063;-59
2022/03/28 06:48:54;;;;;;;1.10;0.43;;;;;;;20.01;31.78;101272.16;4197903;28;20157;-60
2022/03/28 06:50:55;;;;;;;0.90;0.30;;;;;;;19.99;32.07;101269.66;4197255;28;20044;-60
2022/03/28 06:53:00;;;;;;;0.82;0.20;;;;;;;20.00;31.60;101276.06;4198002;28;20671;-59
2022/03/28 06:55:02;;;;;;;0.30;0.30;;;;;;;20.01;31.92;101277.72;4197489;28;20430;-59
2022/03/28 06:57:04;;;;;;;0.50;0.30;;;;;;;19.99;31.90;101271.63;4198366;28;20037;-59
2022/03/28 06:59:08;;;;;;;1.05;0.30;;;;;;;20.01;31.99;101273.00;4198242;28;20077;-59
2022/03/28 07:01:10;;;;;;;0.30;0.20;;;;;;;20.01;31.64;101273.00;4198282;28;20041;-60
2022/03/28 07:03:12;;;;;;;0.47;0.20;;;;;;;20.02;31.77;101268.28;4197675;28;20036;-59
2022/03/28 07:05:14;;;;;;;0.20;0.20;;;;;;;20.02;32.08;101273.84;4197880;28;20037;-58
2022/03/28 07:07:16;;;;;;;1.08;0.40;;;;;;;20.01;31.78;101272.16;4197658;28;20541;-59
2022/03/28 07:09:17;;;;;;;1.58;0.40;;;;;;;20.01;32.04;101261.06;4197720;28;20411;-58
2022/03/28 07:11:18;;;;;;;0.45;0.25;;;;;;;20.01;31.83;101274.94;4197309;28;20041;-58
2022/03/28 07:13:20;;;;;;;0.35;0.30;;;;;;;20.01;31.98;101283.28;4196753;28;20109;-59
2022/03/28 07:15:26;;;;;;;0.10;0.10;;;;;;;20.01;31.58;101275.78;4197373;28;20434;-58
2022/03/28 07:17:27;;;;;;;0.85;0.30;;;;;;;20.01;31.78;101277.72;4197090;28;20094;-58
2022/03/28 07:19:29;;;;;;;2.30;0.40;;;;;;;20.01;31.71;101273.00;4196872;28;20456;-58
2022/03/28 07:21:31;;;;;;;0.95;0.50;;;;;;;20.02;31.63;101279.38;4196843;28;20052;-58
2022/03/28 07:23:35;;;;;;;0.45;0.30;;;;;;;20.01;31.92;101272.16;4197785;28;20133;-59
2022/03/28 07:25:39;;;;;;;0.40;0.30;;;;;;;20.00;31.61;101276.88;4197200;28;20102;-58
2022/03/28 07:27:41;;;;;;;0.20;0.20;;;;;;;20.01;31.64;101280.50;4197407;28;20044;-59
2022/03/28 07:29:43;;;;;;;0.20;0.20;;;;;;;19.99;31.80;101263.28;4197032;28;20036;-59
2022/03/28 07:31:44;;;;;;;0.57;0.20;;;;;;;20.01;31.54;101284.09;4196884;28;20040;-59
2022/03/28 07:33:46;;;;;;;0.30;0.30;;;;;;;19.99;31.69;101286.34;4197195;28;20097;-59
2022/03/28 07:35:47;;;;;;;1.40;0.40;;;;;;;20.01;31.87;101289.66;4197293;28;20048;-59
2022/03/28 07:37:54;;;;;;;0.32;0.28;;;;;;;20.01;31.77;101289.66;4196627;28;20095;-59
2022/03/28 07:39:59;;;;;;;0.82;0.40;;;;;;;20.01;31.51;101297.16;4196910;28;20078;-59
2022/03/28 07:42:01;;;;;;;0.30;0.30;;;;;;;20.01;31.54;101299.94;4197040;28;20044;-59
2022/03/28 07:44:03;;;;;;;0.52;0.30;;;;;;;20.00;31.64;101299.13;4197591;28;20040;-59
2022/03/28 07:46:05;;;;;;;0.20;0.20;;;;;;;20.00;31.83;101304.66;4197440;28;20109;-59
2022/03/28 07:48:07;;;;;;;0.88;0.45;;;;;;;20.00;31.75;101304.66;4196808;28;20098;-59
2022/03/28 07:50:10;;;;;;;0.30;0.30;;;;;;;19.99;31.63;101304.94;4196887;28;20040;-59
2022/03/28 07:52:12;;;;;;;0.20;0.20;;;;;;;20.00;31.79;101306.59;4196500;28;20048;-60
2022/03/28 07:54:16;;;;;;;0.10;0.10;;;;;;;19.99;31.79;101307.72;4200544;28;20082;-58
2022/03/28 07:56:18;;;;;;;0.85;0.30;;;;;;;19.99;31.44;101310.50;4198079;28;20041;-59
2022/03/28 07:58:19;;;;;;;0.40;0.40;;;;;;;19.98;31.30;101300.50;4203314;28;20044;-59
2022/03/28 08:00:23;;;;;;;2.92;0.30;;;;;;;19.99;31.37;101324.38;4211037;28;20125;-59
2022/03/28 08:02:24;;;;;;;0.50;0.20;;;;;;;19.98;31.78;101323.56;4200541;28;20032;-59
2022/03/28 08:04:26;;;;;;;0.50;0.20;;;;;;;19.99;31.48;101318.84;4200438;28;20040;-58
2022/03/28 08:06:27;;;;;;;2.45;0.20;;;;;;;20.00;31.56;101320.50;4200324;28;20036;-58
2022/03/28 08:08:32;;;;;;;0.40;0.20;;;;;;;19.99;31.37;101328.00;4212009;28;20073;-59
2022/03/28 08:10:34;;;;;;;0.30;0.30;;;;;;;19.98;31.23;101322.72;4200245;28;20037;-59
2022/03/28 08:12:37;;;;;;;0.70;0.40;;;;;;;19.99;31.40;101318.84;4199901;28;20094;-59
2022/03/28 08:14:39;;;;;;;0.50;0.25;;;;;;;19.98;31.22;101329.09;4210730;28;20422;-59
2022/03/28 08:16:41;;;;;;;0.77;0.22;;;;;;;19.98;31.21;101323.56;4197073;28;20040;-58
2022/03/28 08:18:42;;;;;;;0.20;0.20;;;;;;;19.99;31.53;101335.50;4199520;28;20086;-59
2022/03/28 08:20:44;;;;;;;0.52;0.38;;;;;;;19.96;31.18;101327.69;4200145;28;20087;-59
2022/03/28 08:22:49;;;;;;;0.30;0.20;;;;;;;19.98;31.12;101328.28;4200204;28;20092;-58
2022/03/28 08:24:51;;;;;;;0.40;0.30;;;;;;;19.98;31.50;101328.28;4200336;28;20105;-59
2022/03/28 08:26:52;;;;;;;0.63;0.30;;;;;;;19.98;31.26;101323.56;4200157;28;20098;-59
2022/03/28 08:28:53;;;;;;;1.55;0.28;;;;;;;19.97;31.27;101327.41;4199632;28;20093;-59
2022/03/28 08:30:55;;;;;;;0.57;0.28;;;;;;;19.97;31.51;101327.41;4200097;28;20041;-59
2022/03/28 08:32:56;;;;;;;0.43;0.32;;;;;;;19.98;31.34;101331.06;4199296;28;20041;-59
2022/03/28 08:34:57;;;;;;;1.55;0.30;;;;;;;19.97;31.27;101327.41;4199964;28;20434;-59
2022/03/28 08:36:59;;;;;;;0.52;0.20;;;;;;;19.96;31.42;101324.91;4199954;28;20040;-59
2022/03/28 08:39:00;;;;;;;0.40;0.40;;;;;;;19.97;31.19;101332.13;4203279;28;20048;-59
2022/03/28 08:41:02;;;;;;;0.75;0.30;;;;;;;19.97;31.34;101327.41;4199789;28;20041;-59
2022/03/28 08:43:04;;;;;;;0.28;0.28;;;;;;;19.97;31.17;101332.13;4199957;28;20049;-59
2022/03/28 08:45:11;;;;;;;0.20;0.20;;;;;;;19.97;31.11;101334.91;4200120;28;20480;-59
2022/03/28 08:47:17;;;;;;;0.22;0.22;;;;;;;19.96;31.36;101331.31;4199699;28;20048;-59
2022/03/28 08:49:19;;;;;;;0.45;0.35;;;;;;;19.95;31.23;101331.56;4200237;28;20036;-59
2022/03/28 08:51:20;;;;;;;0.43;0.20;;;;;;;19.96;31.38;101331.31;4200130;28;20066;-58
2022/03/28 08:53:22;;;;;;;0.30;0.30;;;;;;;19.97;31.35;101337.69;4198974;28;20041;-59
2022/03/28 08:55:26;;;;;;;0.55;0.30;;;;;;;19.91;31.25;101336.81;4200171;28;20028;-59
2022/03/28 08:57:27;;;;;;;0.30;0.30;;;;;;;19.95;31.19;101334.34;4200120;28;20035;-59
2022/03/28 08:59:31;;;;;;;0.75;0.30;;;;;;;19.97;31.01;101346.03;4199865;28;20044;-59
2022/03/28 09:01:34;;;;;;;0.50;0.25;;;;;;;19.94;31.47;101327.13;4199676;28;20411;-59
2022/03/28 09:03:40;;;;;;;0.22;0.20;;;;;;;19.94;31.60;101333.50;4199876;28;20365;-58
2022/03/28 09:05:47;;;;;;;0.70;0.40;;;;;;;19.94;31.43;101339.06;4199875;28;20453;-59
2022/03/28 09:07:52;;;;;;;0.20;0.20;;;;;;;19.84;31.08;101321.47;4199803;28;20369;-59
2022/03/28 09:09:57;;;;;;;;;;;;;;;19.93;31.16;101336.53;4200499;28;20032;-59
2022/03/28 09:12:08;;;;;;;0.47;0.40;;;;;;;19.95;31.34;101334.34;4197696;28;19966;-59
2022/03/28 09:14:22;;;;;;;0.45;0.40;;;;;;;19.95;31.03;101340.75;4198592;28;20158;-59
2022/03/28 09:16:27;;;;;;;2.38;0.20;;;;;;;19.95;30.94;101346.28;4199335;28;20045;-60
2022/03/28 09:18:34;;;;;;;0.30;0.30;;;;;;;19.92;31.16;101344.03;4199452;28;20044;-60
2022/03/28 09:20:36;;;;;;;0.28;0.28;;;;;;;19.93;31.35;101347.66;4199225;28;20178;-60
2022/03/28 09:22:41;;;;;;;0.63;0.30;;;;;;;19.91;31.19;101345.16;4198951;28;20162;-60
2022/03/28 09:24:44;;;;;;;0.57;0.55;;;;;;;19.92;31.03;101354.31;4199743;28;20032;-59
2022/03/28 09:26:45;;;;;;;0.30;0.20;;;;;;;19.88;31.06;101345.66;4199163;28;20041;-59
2022/03/28 09:28:56;;;;;;;1.13;0.40;;;;;;;19.92;31.00;101357.09;4198401;28;20040;-59
2022/03/28 09:31:15;;;;;;;0.30;0.20;;;;;;;19.87;31.35;101346.78;4199118;28;20036;-60
2022/03/28 09:33:18;;;;;;;0.38;0.28;;;;;;;19.91;31.29;101345.16;4198666;28;20048;-59